createdAt,value
2018-08-11T06:25:37.890Z,13.08
2018-08-11T06:28:06.536Z,12.60
2018-08-11T06:30:35.136Z,12.18
2018-08-11T06:33:03.937Z,11.33
2018-08-11T06:35:32.414Z,11.88
2018-08-11T06:38:00.929Z,11.12
2018-08-11T06:40:29.538Z,12.45
2018-08-11T06:42:58.026Z,12.40
2018-08-11T06:45:26.532Z,11.83
2018-08-11T06:47:55.033Z,13.13
2018-08-11T06:50:23.568Z,12.55
2018-08-11T06:52:52.109Z,13.38
2018-08-11T06:55:20.626Z,12.47
2018-08-11T06:57:49.220Z,11.48
2018-08-11T07:00:17.780Z,11.40
2018-08-11T07:02:46.294Z,12.07
2018-08-11T07:05:14.756Z,9.45
2018-08-11T07:07:43.335Z,12.15
2018-08-11T07:10:11.941Z,11.78
2018-08-11T07:12:40.661Z,11.20
2018-08-11T07:15:09.222Z,11.33
2018-08-11T07:17:37.718Z,11.05
2018-08-11T07:20:06.243Z,10.98
2018-08-11T07:22:34.796Z,10.32
2018-08-11T07:25:03.311Z,11.68
2018-08-11T07:27:31.825Z,10.20
2018-08-11T07:30:00.454Z,9.25
2018-08-11T07:32:28.961Z,9.48
2018-08-11T07:34:57.452Z,8.95
2018-08-11T07:37:25.975Z,9.85
2018-08-11T07:39:54.589Z,9.68
2018-08-11T07:42:23.107Z,9.45
2018-08-11T07:44:51.575Z,9.48
2018-08-11T07:47:20.144Z,9.65
2018-08-11T07:49:48.724Z,8.25
2018-08-11T07:52:17.217Z,9.08
2018-08-11T07:54:45.708Z,8.30
2018-08-11T07:57:14.233Z,8.60
2018-08-11T07:59:42.864Z,7.85
2018-08-11T08:02:11.377Z,7.62
2018-08-11T08:04:39.841Z,8.93
2018-08-11T08:07:08.320Z,7.90
2018-08-11T08:09:36.834Z,6.85
2018-08-11T08:12:05.345Z,6.90
2018-08-11T08:14:33.830Z,6.53
2018-08-11T08:17:02.321Z,6.53
2018-08-11T08:19:30.836Z,6.28
2018-08-11T08:21:59.336Z,6.00
2018-08-11T08:24:27.790Z,5.95
2018-08-11T08:26:56.280Z,5.70
2018-08-11T08:29:24.828Z,4.75
2018-08-11T08:31:53.578Z,4.67
2018-08-11T08:34:22.127Z,4.90
2018-08-11T08:36:50.652Z,4.37
2018-08-11T08:39:19.270Z,4.72
2018-08-11T08:41:47.767Z,3.87
2018-08-11T08:44:16.324Z,3.37
2018-08-11T08:46:45.087Z,3.47
2018-08-11T08:49:13.706Z,3.30
2018-08-11T08:51:42.253Z,3.27
2018-08-11T08:54:10.752Z,3.00
2018-08-11T08:56:39.258Z,3.10
2018-08-11T08:59:07.830Z,2.22
2018-08-11T09:01:36.314Z,2.22
2018-08-11T09:04:05.006Z,2.02
2018-08-11T09:06:34.043Z,2.30
2018-08-11T09:09:02.583Z,2.40
2018-08-11T09:11:31.072Z,2.33
2018-08-11T09:14:00.354Z,2.05
2018-08-11T09:16:28.832Z,2.42
2018-08-11T09:18:57.332Z,2.25
2018-08-11T09:21:25.810Z,2.42
2018-08-11T09:23:54.872Z,2.20
2018-08-11T09:26:23.407Z,1.98
2018-08-11T09:28:51.932Z,2.12
2018-08-11T09:31:20.429Z,2.12
2018-08-11T09:33:48.937Z,2.75
2018-08-11T09:36:18.368Z,2.00
2018-08-11T09:38:46.872Z,1.70
2018-08-11T09:41:15.407Z,2.20
2018-08-11T09:43:49.629Z,1.90
2018-08-11T09:46:18.128Z,1.60
2018-08-11T09:48:46.614Z,1.70
2018-08-11T09:51:15.089Z,2.00
2018-08-11T09:53:43.560Z,1.80
2018-08-11T09:56:12.051Z,1.80
2018-08-11T09:58:40.605Z,1.90
2018-08-11T10:01:14.697Z,1.92
2018-08-11T10:03:43.206Z,1.80
2018-08-11T10:06:11.697Z,2.58
2018-08-11T10:08:40.177Z,2.30
2018-08-11T10:11:08.654Z,2.10
2018-08-11T10:13:37.159Z,1.77
2018-08-11T10:16:08.461Z,1.75
2018-08-11T10:18:36.999Z,1.75
2018-08-11T10:21:06.254Z,1.87
2018-08-11T10:23:34.755Z,1.50
2018-08-11T10:26:03.259Z,1.35
2018-08-11T10:28:32.094Z,1.87
2018-08-11T10:31:00.741Z,1.92
2018-08-11T10:33:29.275Z,1.90
2018-08-11T10:35:57.748Z,1.55
2018-08-11T10:38:26.345Z,2.00
2018-08-11T10:40:54.960Z,1.60
2018-08-11T10:43:23.474Z,1.80
2018-08-11T10:45:52.184Z,1.60
2018-08-11T10:48:20.674Z,1.67
2018-08-11T10:50:49.281Z,1.67
2018-08-11T10:53:17.862Z,1.70
2018-08-11T10:55:46.448Z,1.50
2018-08-11T10:58:14.942Z,1.50
2018-08-11T11:00:43.491Z,1.20
2018-08-11T11:03:12.036Z,1.30
2018-08-11T11:05:40.529Z,1.40
2018-08-11T11:08:15.663Z,1.22
2018-08-11T11:10:44.243Z,1.30
2018-08-11T11:13:12.755Z,1.67
2018-08-11T11:15:41.257Z,1.60
2018-08-11T11:18:09.778Z,1.70
2018-08-11T11:20:38.350Z,1.22
2018-08-11T11:23:06.872Z,1.77
2018-08-11T11:25:35.395Z,1.62
2018-08-11T11:28:03.871Z,1.80
2018-08-11T11:30:32.414Z,1.60
2018-08-11T11:33:00.972Z,1.87
2018-08-11T11:35:29.444Z,2.10
2018-08-11T11:37:58.002Z,1.90
2018-08-11T11:40:26.577Z,2.00
2018-08-11T11:42:55.231Z,1.65
2018-08-11T11:45:23.889Z,1.57
2018-08-11T11:47:52.555Z,1.50
2018-08-11T11:50:21.131Z,1.77
2018-08-11T11:52:49.614Z,1.80
2018-08-11T11:55:18.097Z,2.22
2018-08-11T11:57:46.627Z,1.75
2018-08-11T12:00:15.273Z,1.60
2018-08-11T12:02:43.763Z,1.87
2018-08-11T12:05:13.259Z,2.00
2018-08-11T12:07:41.751Z,1.37
2018-08-11T12:10:11.163Z,1.98
2018-08-11T12:12:39.678Z,1.42
2018-08-11T12:15:08.234Z,1.70
2018-08-11T12:17:36.710Z,1.75
2018-08-11T12:20:05.510Z,1.55
2018-08-11T12:22:34.141Z,1.62
2018-08-11T12:25:03.452Z,1.60
2018-08-11T12:27:31.993Z,1.45
2018-08-11T12:30:00.614Z,1.40
2018-08-11T12:32:30.388Z,1.42
2018-08-11T12:34:59.002Z,1.60
2018-08-11T12:37:27.598Z,1.90
2018-08-11T12:39:56.810Z,1.80
2018-08-11T12:42:25.376Z,1.80
2018-08-11T12:44:53.849Z,1.80
2018-08-11T12:47:22.393Z,2.00
2018-08-11T12:49:50.969Z,1.80
2018-08-11T12:52:19.475Z,1.50
2018-08-11T12:54:48.045Z,1.77
2018-08-11T12:57:16.639Z,1.60
2018-08-11T12:59:45.228Z,1.80
2018-08-11T13:02:13.731Z,1.70
2018-08-11T13:04:42.205Z,1.70
2018-08-11T13:07:10.773Z,1.90
2018-08-11T13:09:39.329Z,1.50
2018-08-11T13:12:07.834Z,1.80
2018-08-11T13:14:36.422Z,1.40
2018-08-11T13:17:04.939Z,1.77
2018-08-11T13:19:33.632Z,1.70
2018-08-11T13:22:02.160Z,1.67
2018-08-11T13:24:30.659Z,1.60
2018-08-11T13:26:59.205Z,1.80
2018-08-11T13:29:27.997Z,1.50
2018-08-11T13:31:56.572Z,1.60
2018-08-11T13:34:25.111Z,1.47
2018-08-11T13:36:53.754Z,2.02
2018-08-11T13:39:22.301Z,1.62
2018-08-11T13:41:50.857Z,1.37
2018-08-11T13:44:20.354Z,1.50
2018-08-11T13:46:48.836Z,1.30
2018-08-11T13:49:17.438Z,1.20
2018-08-11T13:51:45.681Z,1.30
2018-08-11T13:54:14.239Z,1.52
2018-08-11T13:56:42.745Z,1.50
2018-08-11T13:59:11.353Z,1.85
2018-08-11T14:01:39.516Z,1.90
2018-08-11T14:04:08.049Z,2.00
2018-08-11T14:06:36.640Z,2.37
2018-08-11T14:09:06.298Z,2.90
2018-08-11T14:11:34.853Z,2.20
2018-08-11T14:14:03.393Z,2.15
2018-08-11T14:16:31.907Z,1.57
2018-08-11T14:19:00.406Z,1.80
2018-08-11T14:21:28.949Z,1.52
2018-08-11T14:23:57.460Z,1.60
2018-08-11T14:26:25.986Z,1.87
2018-08-11T14:28:54.507Z,2.10
2018-08-11T14:31:23.101Z,2.30
2018-08-11T14:33:51.612Z,1.90
2018-08-11T14:36:20.078Z,1.67
2018-08-11T14:38:48.689Z,1.98
2018-08-11T14:41:17.112Z,1.90
2018-08-11T14:43:45.672Z,2.20
2018-08-11T14:46:14.761Z,2.50
2018-08-11T14:48:43.272Z,2.98
2018-08-11T14:51:11.800Z,2.98
2018-08-11T14:53:40.303Z,2.70
2018-08-11T14:56:08.808Z,1.50
2018-08-11T14:58:37.348Z,1.40
2018-08-11T15:01:06.202Z,1.62
2018-08-11T15:03:34.705Z,1.90
2018-08-11T15:06:03.208Z,2.20
2018-08-11T15:08:32.271Z,1.52
2018-08-11T15:11:00.803Z,1.75
2018-08-11T15:13:29.954Z,1.70
2018-08-11T15:15:58.559Z,1.90
2018-08-11T15:18:27.054Z,2.58
2018-08-11T15:20:55.642Z,3.50
2018-08-11T15:23:24.159Z,3.80
2018-08-11T15:25:52.770Z,4.25
2018-08-11T15:28:21.290Z,4.50
2018-08-11T15:30:49.853Z,4.67
2018-08-11T15:33:18.724Z,3.27
2018-08-11T15:35:47.258Z,3.77
2018-08-11T15:38:15.793Z,4.40
2018-08-11T15:40:44.409Z,3.10
2018-08-11T15:43:12.991Z,1.72
2018-08-11T15:45:41.487Z,1.47
2018-08-11T15:48:10.004Z,1.72
2018-08-11T15:50:38.645Z,1.85
2018-08-11T15:53:07.232Z,2.20
2018-08-11T15:55:35.843Z,2.70
2018-08-11T15:58:04.384Z,2.85
2018-08-11T16:00:33.047Z,3.00
2018-08-11T16:03:01.868Z,3.27
2018-08-11T16:05:30.439Z,3.20
2018-08-11T16:07:59.019Z,4.08
2018-08-11T16:10:27.690Z,3.40
2018-08-11T16:12:56.185Z,3.40
2018-08-11T16:15:25.425Z,3.33
2018-08-11T16:17:53.937Z,3.75
2018-08-11T16:20:23.219Z,2.70
2018-08-11T16:22:51.726Z,2.17
2018-08-11T16:25:20.274Z,1.90
2018-08-11T16:27:48.834Z,2.17
2018-08-11T16:30:17.400Z,2.37
2018-08-11T16:32:45.897Z,2.30
2018-08-11T16:35:20.319Z,2.30
2018-08-11T16:37:48.963Z,2.27
2018-08-11T16:40:17.551Z,2.22
2018-08-11T16:42:46.074Z,2.42
2018-08-11T16:45:14.597Z,2.45
2018-08-11T16:47:43.179Z,2.40
2018-08-11T16:50:11.661Z,2.62
2018-08-11T16:52:40.171Z,2.50
2018-08-11T16:55:08.688Z,2.00
2018-08-11T16:57:37.171Z,2.05
2018-08-11T17:00:08.365Z,2.00
2018-08-11T17:02:36.885Z,1.60
2018-08-11T17:05:05.682Z,1.50
2018-08-11T17:07:34.261Z,1.50
2018-08-11T17:10:03.915Z,1.15
2018-08-11T17:12:32.625Z,1.05
2018-08-11T17:15:01.143Z,1.10
2018-08-11T17:17:29.704Z,1.20
2018-08-11T17:19:58.322Z,1.30
2018-08-11T17:22:26.846Z,1.12
2018-08-11T17:24:55.401Z,1.17
2018-08-11T17:27:26.243Z,1.32
2018-08-11T17:29:54.842Z,0.95
2018-08-11T17:32:23.357Z,1.12
2018-08-11T17:34:54.345Z,1.00
2018-08-11T17:37:25.007Z,1.10
2018-08-11T17:39:54.638Z,1.05
2018-08-11T17:42:23.719Z,1.00
2018-08-11T17:44:52.771Z,1.15
2018-08-11T17:47:21.341Z,1.00
2018-08-11T17:49:51.233Z,1.10
2018-08-11T17:52:20.913Z,0.90
2018-08-11T17:54:50.185Z,1.30
2018-08-11T17:57:18.716Z,1.05
2018-08-11T17:59:47.534Z,1.00
2018-08-11T18:02:16.462Z,0.90
2018-08-11T18:04:45.080Z,0.93
2018-08-11T18:07:13.861Z,0.85
2018-08-11T18:09:43.668Z,0.90
2018-08-11T18:12:13.483Z,0.75
2018-08-11T18:14:42.027Z,1.00
2018-08-11T18:17:11.589Z,0.93
2018-08-11T18:19:40.311Z,1.10
2018-08-11T18:22:08.868Z,0.98
2018-08-11T18:24:38.735Z,1.10
2018-08-11T18:27:07.585Z,1.02
2018-08-11T18:29:36.796Z,1.12
2018-08-11T18:32:05.334Z,1.07
2018-08-11T18:34:34.902Z,1.00
2018-08-11T18:37:03.494Z,1.27
2018-08-11T18:39:32.211Z,1.20
2018-08-11T18:42:00.821Z,1.57
2018-08-11T18:44:29.480Z,1.10
2018-08-11T18:46:58.016Z,1.05
2018-08-11T18:49:26.675Z,1.25
2018-08-11T18:51:55.237Z,1.30
2018-08-11T18:54:23.757Z,1.37
2018-08-11T18:56:52.280Z,1.20
2018-08-11T18:59:20.829Z,1.25
2018-08-11T19:01:49.877Z,1.30
2018-08-11T19:04:18.455Z,1.52
2018-08-11T19:06:47.039Z,1.20
2018-08-11T19:09:15.709Z,1.40
2018-08-11T19:11:44.291Z,1.32
2018-08-11T19:14:12.908Z,1.60
2018-08-11T19:16:41.486Z,1.27
2018-08-11T19:19:10.110Z,1.50
2018-08-11T19:21:38.855Z,1.40
2018-08-11T19:24:07.427Z,1.37
2018-08-11T19:26:36.088Z,1.30
2018-08-11T19:29:04.768Z,1.70
2018-08-11T19:31:33.310Z,1.42
2018-08-11T19:34:01.899Z,1.47
2018-08-11T19:36:30.452Z,1.45
2018-08-11T19:39:00.182Z,1.67
2018-08-11T19:41:29.349Z,1.50
2018-08-11T19:43:57.985Z,1.60
2018-08-11T19:46:26.505Z,1.60
2018-08-11T19:48:54.993Z,1.40
2018-08-11T19:51:23.477Z,1.30
2018-08-11T19:53:52.008Z,1.50
2018-08-11T19:56:20.475Z,1.37
2018-08-11T19:58:48.963Z,1.50
2018-08-11T20:01:17.452Z,1.60
2018-08-11T20:03:46.034Z,1.60
2018-08-11T20:06:14.530Z,1.67
2018-08-11T20:08:43.002Z,1.70
2018-08-11T20:11:11.505Z,1.30
2018-08-11T20:13:40.024Z,1.40
2018-08-11T20:16:08.565Z,1.17
2018-08-11T20:18:37.039Z,1.37
2018-08-11T20:21:05.584Z,1.30
2018-08-11T20:23:34.162Z,1.35
2018-08-11T20:26:02.662Z,1.37
2018-08-11T20:28:31.157Z,1.65
2018-08-11T20:30:59.703Z,1.57
2018-08-11T20:33:28.200Z,1.52
2018-08-11T20:35:56.680Z,1.60
2018-08-11T20:38:25.256Z,1.80
2018-08-11T20:40:53.837Z,1.80
2018-08-11T20:43:22.306Z,1.65
2018-08-11T20:45:50.799Z,1.80
2018-08-11T20:48:19.278Z,1.70
2018-08-11T20:50:47.831Z,1.50
2018-08-11T20:53:16.307Z,2.00
2018-08-11T20:55:44.833Z,2.12
2018-08-11T20:58:13.417Z,1.95
2018-08-11T21:00:41.967Z,1.90
2018-08-11T21:03:11.537Z,1.67
2018-08-11T21:05:40.782Z,1.80
2018-08-11T21:08:10.436Z,1.80
2018-08-11T21:10:40.967Z,1.77
2018-08-11T21:13:10.551Z,2.33
2018-08-11T21:15:39.393Z,2.30
2018-08-11T21:18:09.110Z,2.72
2018-08-11T21:20:37.792Z,4.70
2018-08-11T21:23:12.043Z,3.05
2018-08-11T21:25:45.508Z,3.77
2018-08-11T21:28:14.021Z,3.45
2018-08-11T21:30:45.460Z,3.98
2018-08-11T21:33:14.407Z,3.37
2018-08-11T21:35:43.101Z,4.58
2018-08-11T21:38:14.564Z,4.70
2018-08-11T21:40:44.703Z,4.87
2018-08-11T21:46:06.421Z,4.65
2018-08-11T21:48:34.932Z,4.17
2018-08-11T21:51:03.520Z,4.20
2018-08-11T21:53:32.178Z,3.83
2018-08-11T21:56:00.704Z,3.47
2018-08-11T21:58:32.764Z,3.58
2018-08-11T22:03:55.984Z,4.00
2018-08-11T22:06:24.578Z,3.33
2018-08-11T22:08:53.767Z,3.90
2018-08-11T22:11:22.320Z,3.27
2018-08-11T22:13:50.806Z,4.20
2018-08-11T22:16:19.294Z,4.33
2018-08-11T22:18:47.826Z,3.87
